sensor_id;sensor_type;location;lat;lon;timestamp;pressure;altitude;pressure_sealevel;temperature;humidity
32759;BME280;19125;52.360;9.974;2023-09-07T00:00:15;85675.31;;;-145.17;54.99
32759;BME280;19125;52.360;9.974;2023-09-07T00:02:41;85679.28;;;-145.17;54.97
32759;BME280;19125;52.360;9.974;2023-09-07T00:05:07;85639.59;;;-145.17;54.97
32759;BME280;19125;52.360;9.974;2023-09-07T00:07:33;85623.72;;;-145.17;54.86
32759;BME280;19125;52.360;9.974;2023-09-07T00:09:59;85675.31;;;-145.17;55.04
32759;BME280;19125;52.360;9.974;2023-09-07T00:12:25;85665.41;;;-145.17;54.95
32759;BME280;19125;52.360;9.974;2023-09-07T00:14:50;85691.19;;;-145.17;54.82
32759;BME280;19125;52.360;9.974;2023-09-07T00:17:16;85691.19;;;-145.17;55.18
32759;BME280;19125;52.360;9.974;2023-09-07T00:19:41;85750.72;;;-145.17;55.23
32759;BME280;19125;52.360;9.974;2023-09-07T00:22:06;85756.66;;;-145.17;55.66
32759;BME280;19125;52.360;9.974;2023-09-07T00:24:32;85784.44;;;-145.17;55.61
32759;BME280;19125;52.360;9.974;2023-09-07T00:26:58;85772.53;;;-145.17;55.67
32759;BME280;19125;52.360;9.974;2023-09-07T00:29:23;85822.16;;;-145.17;55.90
32759;BME280;19125;52.360;9.974;2023-09-07T00:31:49;85828.09;;;-145.17;56.17
32759;BME280;19125;52.360;9.974;2023-09-07T00:34:14;85853.91;;;-145.17;56.36
32759;BME280;19125;52.360;9.974;2023-09-07T00:36:39;85883.66;;;-145.17;56.62
32759;BME280;19125;52.360;9.974;2023-09-07T00:39:05;85889.63;;;-145.17;56.71
32759;BME280;19125;52.360;9.974;2023-09-07T00:41:30;85945.16;;;-145.17;57.00
32759;BME280;19125;52.360;9.974;2023-09-07T00:43:55;85974.94;;;-145.17;57.22
32759;BME280;19125;52.360;9.974;2023-09-07T00:46:21;86026.53;;;-145.17;57.38
32759;BME280;19125;52.360;9.974;2023-09-07T00:48:48;85996.75;;;-145.17;57.51
32759;BME280;19125;52.360;9.974;2023-09-07T00:51:13;86054.31;;;-145.17;57.65
32759;BME280;19125;52.360;9.974;2023-09-07T00:53:39;86080.09;;;-145.17;57.83
32759;BME280;19125;52.360;9.974;2023-09-07T00:56:05;86147.56;;;-145.17;58.08
32759;BME280;19125;52.360;9.974;2023-09-07T00:58:50;86137.66;;;-145.17;58.22
32759;BME280;19125;52.360;9.974;2023-09-07T01:01:35;86221.00;;;-145.17;58.28
32759;BME280;19125;52.360;9.974;2023-09-07T01:04:01;86306.31;;;-145.17;58.55
32759;BME280;19125;52.360;9.974;2023-09-07T01:06:56;86355.94;;;-145.17;58.60
32759;BME280;19125;52.360;9.974;2023-09-07T01:09:26;86429.34;;;-145.17;58.83
32759;BME280;19125;52.360;9.974;2023-09-07T01:11:53;86477.00;;;-145.17;59.05
32759;BME280;19125;52.360;9.974;2023-09-07T01:14:18;86544.47;;;-145.17;59.20
32759;BME280;19125;52.360;9.974;2023-09-07T01:16:44;86550.41;;;-145.17;59.33
32759;BME280;19125;52.360;9.974;2023-09-07T01:19:10;86605.97;;;-145.17;59.62
32759;BME280;19125;52.360;9.974;2023-09-07T01:21:39;86681.41;;;-145.17;59.64
32759;BME280;19125;52.360;9.974;2023-09-07T01:24:06;86693.31;;;-145.17;59.69
32759;BME280;19125;52.360;9.974;2023-09-07T01:26:33;86689.34;;;-145.17;59.79
32759;BME280;19125;52.360;9.974;2023-09-07T01:28:58;86687.34;;;-145.17;59.86
32759;BME280;19125;52.360;9.974;2023-09-07T01:31:23;86707.19;;;-145.17;59.73
32759;BME280;19125;52.360;9.974;2023-09-07T01:33:49;86717.13;;;-145.17;59.86
32759;BME280;19125;52.360;9.974;2023-09-07T01:36:14;86734.97;;;-145.17;59.84
32759;BME280;19125;52.360;9.974;2023-09-07T01:38:40;86727.03;;;-145.17;60.07
32759;BME280;19125;52.360;9.974;2023-09-07T01:41:05;86715.13;;;-145.17;60.06
32759;BME280;19125;52.360;9.974;2023-09-07T01:43:30;86715.13;;;-145.17;60.38
32759;BME280;19125;52.360;9.974;2023-09-07T01:45:55;86715.13;;;-145.17;59.92
32759;BME280;19125;52.360;9.974;2023-09-07T01:48:21;86705.22;;;-145.17;60.23
32759;BME280;19125;52.360;9.974;2023-09-07T01:50:46;86715.13;;;-145.17;60.45
32759;BME280;19125;52.360;9.974;2023-09-07T01:53:11;86729.03;;;-145.17;60.25
32759;BME280;19125;52.360;9.974;2023-09-07T01:55:37;86709.19;;;-145.17;60.12
32759;BME280;19125;52.360;9.974;2023-09-07T01:58:02;86703.22;;;-145.17;60.25
32759;BME280;19125;52.360;9.974;2023-09-07T02:00:28;86727.03;;;-145.17;60.24
32759;BME280;19125;52.360;9.974;2023-09-07T02:02:53;86719.09;;;-145.17;60.46
32759;BME280;19125;52.360;9.974;2023-09-07T02:05:19;86742.91;;;-145.17;60.35
32759;BME280;19125;52.360;9.974;2023-09-07T02:07:44;86723.06;;;-145.17;60.52
32759;BME280;19125;52.360;9.974;2023-09-07T02:10:10;86742.91;;;-145.17;60.39
32759;BME280;19125;52.360;9.974;2023-09-07T02:12:36;86715.13;;;-145.17;60.67
32759;BME280;19125;52.360;9.974;2023-09-07T02:15:02;86734.97;;;-145.17;60.86
32759;BME280;19125;52.360;9.974;2023-09-07T02:17:28;86703.22;;;-145.17;60.99
32759;BME280;19125;52.360;9.974;2023-09-07T02:19:54;86764.75;;;-145.17;60.65
32759;BME280;19125;52.360;9.974;2023-09-07T02:22:19;86727.03;;;-145.17;61.18
32759;BME280;19125;52.360;9.974;2023-09-07T02:24:44;86729.03;;;-145.17;60.84
32759;BME280;19125;52.360;9.974;2023-09-07T02:27:10;86719.09;;;-145.17;60.99
32759;BME280;19125;52.360;9.974;2023-09-07T02:29:35;86746.91;;;-145.17;61.20
32759;BME280;19125;52.360;9.974;2023-09-07T02:32:00;86754.84;;;-145.17;61.09
32759;BME280;19125;52.360;9.974;2023-09-07T02:34:26;86750.88;;;-145.17;61.43
32759;BME280;19125;52.360;9.974;2023-09-07T02:36:51;86764.75;;;-145.17;61.34
32759;BME280;19125;52.360;9.974;2023-09-07T02:39:16;86715.13;;;-145.17;61.47
32759;BME280;19125;52.360;9.974;2023-09-07T02:41:42;86746.91;;;-145.17;61.36
32759;BME280;19125;52.360;9.974;2023-09-07T02:44:08;86703.22;;;-145.17;61.47
32759;BME280;19125;52.360;9.974;2023-09-07T02:46:33;86707.19;;;-145.17;61.59
32759;BME280;19125;52.360;9.974;2023-09-07T02:48:58;86687.34;;;-145.17;61.70
32759;BME280;19125;52.360;9.974;2023-09-07T02:51:24;86661.56;;;-145.17;61.76
32759;BME280;19125;52.360;9.974;2023-09-07T02:53:50;86685.38;;;-145.17;61.92
32759;BME280;19125;52.360;9.974;2023-09-07T02:56:16;86657.59;;;-145.17;61.81
32759;BME280;19125;52.360;9.974;2023-09-07T02:58:41;86600.03;;;-145.17;62.08
32759;BME280;19125;52.360;9.974;2023-09-07T03:01:07;86590.09;;;-145.17;62.29
32759;BME280;19125;52.360;9.974;2023-09-07T03:03:35;86560.34;;;-145.17;62.04
32759;BME280;19125;52.360;9.974;2023-09-07T03:06:11;86578.19;;;-145.17;61.90
32759;BME280;19125;52.360;9.974;2023-09-07T03:08:38;86596.06;;;-145.17;62.12
32759;BME280;19125;52.360;9.974;2023-09-07T03:11:04;86657.59;;;-145.17;62.16
32759;BME280;19125;52.360;9.974;2023-09-07T03:13:30;86623.84;;;-145.17;62.31
32759;BME280;19125;52.360;9.974;2023-09-07T03:15:55;86592.09;;;-145.17;62.04
32759;BME280;19125;52.360;9.974;2023-09-07T03:18:21;86596.06;;;-145.17;62.31
32759;BME280;19125;52.360;9.974;2023-09-07T03:20:46;86598.03;;;-145.17;62.65
32759;BME280;19125;52.360;9.974;2023-09-07T03:23:12;86540.50;;;-145.17;62.31
32759;BME280;19125;52.360;9.974;2023-09-07T03:25:37;86492.88;;;-145.17;62.80
32759;BME280;19125;52.360;9.974;2023-09-07T03:28:03;86457.16;;;-145.17;62.75
32759;BME280;19125;52.360;9.974;2023-09-07T03:30:28;86387.69;;;-145.17;62.93
32759;BME280;19125;52.360;9.974;2023-09-07T03:32:54;86290.44;;;-145.17;63.12
32759;BME280;19125;52.360;9.974;2023-09-07T03:35:19;86167.41;;;-145.17;63.20
32759;BME280;19125;52.360;9.974;2023-09-07T03:37:45;86060.25;;;-145.17;63.21
32759;BME280;19125;52.360;9.974;2023-09-07T03:40:10;85855.88;;;-145.17;63.31
32759;BME280;19125;52.360;9.974;2023-09-07T03:42:36;85548.34;;;-145.17;63.62
32759;BME280;19125;52.360;9.974;2023-09-07T03:45:01;85232.88;;;-145.17;63.53
32759;BME280;19125;52.360;9.974;2023-09-07T03:47:28;84881.75;;;-145.17;63.85
32759;BME280;19125;52.360;9.974;2023-09-07T03:49:55;84580.22;;;-145.17;63.95
32759;BME280;19125;52.360;9.974;2023-09-07T03:52:22;84354.09;;;-145.17;63.81
32759;BME280;19125;52.360;9.974;2023-09-07T03:54:58;83975.28;;;-145.17;64.08
32759;BME280;19125;52.360;9.974;2023-09-07T03:57:25;83475.53;;;-145.17;64.26
32759;BME280;19125;52.360;9.974;2023-09-07T03:59:51;82938.16;;;-145.17;64.31
32759;BME280;19125;52.360;9.974;2023-09-07T04:02:16;82341.38;;;-145.17;64.41
32759;BME280;19125;52.360;9.974;2023-09-07T04:04:48;81948.88;;;-145.17;64.45
32759;BME280;19125;52.360;9.974;2023-09-07T04:07:14;81657.47;;;-145.17;64.38
32759;BME280;19125;52.360;9.974;2023-09-07T04:09:40;81378.00;;;-145.17;64.36
32759;BME280;19125;52.360;9.974;2023-09-07T04:12:05;80884.53;;;-145.17;64.46
32759;BME280;19125;52.360;9.974;2023-09-07T04:14:32;80607.09;;;-145.17;64.22
32759;BME280;19125;52.360;9.974;2023-09-07T04:16:57;80430.72;;;-145.17;64.55
32759;BME280;19125;52.360;9.974;2023-09-07T04:19:23;80313.81;;;-145.17;64.36
32759;BME280;19125;52.360;9.974;2023-09-07T04:21:48;80238.50;;;-145.17;64.53
32759;BME280;19125;52.360;9.974;2023-09-07T04:24:13;80254.38;;;-145.17;64.18
32759;BME280;19125;52.360;9.974;2023-09-07T04:26:39;80286.06;;;-145.17;64.12
32759;BME280;19125;52.360;9.974;2023-09-07T04:29:07;80321.75;;;-145.17;64.13
32759;BME280;19125;52.360;9.974;2023-09-07T04:31:32;80190.97;;;-145.17;64.41
32759;BME280;19125;52.360;9.974;2023-09-07T04:33:57;80230.59;;;-145.17;64.16
32759;BME280;19125;52.360;9.974;2023-09-07T04:36:23;80282.09;;;-145.17;64.46
32759;BME280;19125;52.360;9.974;2023-09-07T04:38:48;80399.00;;;-145.17;64.41
32759;BME280;19125;52.360;9.974;2023-09-07T04:41:14;80698.25;;;-145.17;64.07
32759;BME280;19125;52.360;9.974;2023-09-07T04:43:41;81160.00;;;-145.17;64.15
32759;BME280;19125;52.360;9.974;2023-09-07T04:46:10;81459.28;;;-145.17;64.03
32759;BME280;19125;52.360;9.974;2023-09-07T04:48:35;81637.66;;;-145.17;64.04
32759;BME280;19125;52.360;9.974;2023-09-07T04:51:02;81893.38;;;-145.17;64.01
32759;BME280;19125;52.360;9.974;2023-09-07T04:53:33;82069.78;;;-145.17;64.21
32759;BME280;19125;52.360;9.974;2023-09-07T04:56:00;82097.53;;;-145.17;63.86
32759;BME280;19125;52.360;9.974;2023-09-07T04:58:25;82398.88;;;-145.17;63.76
32759;BME280;19125;52.360;9.974;2023-09-07T05:00:51;82694.28;;;-145.17;63.93
32759;BME280;19125;52.360;9.974;2023-09-07T05:03:16;83108.69;;;-145.17;63.49
32759;BME280;19125;52.360;9.974;2023-09-07T05:05:42;83396.19;;;-145.17;63.66
32759;BME280;19125;52.360;9.974;2023-09-07T05:08:09;83798.78;;;-145.17;63.56
32759;BME280;19125;52.360;9.974;2023-09-07T05:10:34;84247.00;;;-145.17;63.36
32759;BME280;19125;52.360;9.974;2023-09-07T05:13:02;84645.69;;;-145.17;63.17
32759;BME280;19125;52.360;9.974;2023-09-07T05:15:28;84891.66;;;-145.17;63.23
32759;BME280;19125;52.360;9.974;2023-09-07T05:17:54;85155.50;;;-145.17;62.88
32759;BME280;19125;52.360;9.974;2023-09-07T05:20:19;85494.78;;;-145.17;62.92
32759;BME280;19125;52.360;9.974;2023-09-07T05:22:45;85804.28;;;-145.17;63.00
32759;BME280;19125;52.360;9.974;2023-09-07T05:25:11;86040.41;;;-145.17;62.28
32759;BME280;19125;52.360;9.974;2023-09-07T05:27:36;86179.31;;;-145.17;62.49
32759;BME280;19125;52.360;9.974;2023-09-07T05:30:03;86310.28;;;-145.17;62.35
32759;BME280;19125;52.360;9.974;2023-09-07T05:32:29;86373.78;;;-145.17;62.19
32759;BME280;19125;52.360;9.974;2023-09-07T05:34:54;86463.09;;;-145.17;61.95
32759;BME280;19125;52.360;9.974;2023-09-07T05:37:20;86584.16;;;-145.17;61.68
32759;BME280;19125;52.360;9.974;2023-09-07T05:39:45;86637.75;;;-145.17;61.47
32759;BME280;19125;52.360;9.974;2023-09-07T05:42:10;86701.25;;;-145.17;61.39
32759;BME280;19125;52.360;9.974;2023-09-07T05:44:37;86699.25;;;-145.17;61.01
32759;BME280;19125;52.360;9.974;2023-09-07T05:47:03;86723.06;;;-145.17;60.88
32759;BME280;19125;52.360;9.974;2023-09-07T05:49:29;86707.19;;;-145.17;60.37
32759;BME280;19125;52.360;9.974;2023-09-07T05:51:55;86663.53;;;-145.17;60.44
32759;BME280;19125;52.360;9.974;2023-09-07T05:54:20;86613.91;;;-145.17;60.21
32759;BME280;19125;52.360;9.974;2023-09-07T05:56:45;86582.16;;;-145.17;59.68
32759;BME280;19125;52.360;9.974;2023-09-07T05:59:11;86510.72;;;-145.17;59.48
32759;BME280;19125;52.360;9.974;2023-09-07T06:01:36;86516.69;;;-145.17;59.26
32759;BME280;19125;52.360;9.974;2023-09-07T06:04:02;86473.03;;;-145.17;59.24
32759;BME280;19125;52.360;9.974;2023-09-07T06:06:28;86451.19;;;-145.17;59.17
32759;BME280;19125;52.360;9.974;2023-09-07T06:08:54;86399.59;;;-145.17;58.95
32759;BME280;19125;52.360;9.974;2023-09-07T06:11:19;86389.66;;;-145.17;59.40
32759;BME280;19125;52.360;9.974;2023-09-07T06:13:44;86405.53;;;-145.17;59.35
32759;BME280;19125;52.360;9.974;2023-09-07T06:16:11;86379.75;;;-145.17;59.40
32759;BME280;19125;52.360;9.974;2023-09-07T06:18:36;86361.88;;;-145.17;59.33
32759;BME280;19125;52.360;9.974;2023-09-07T06:21:02;86272.59;;;-145.17;58.93
32759;BME280;19125;52.360;9.974;2023-09-07T06:23:27;86254.72;;;-145.17;58.93
32759;BME280;19125;52.360;9.974;2023-09-07T06:25:52;86151.53;;;-145.17;58.35
32759;BME280;19125;52.360;9.974;2023-09-07T06:28:18;86125.75;;;-145.17;58.22
32759;BME280;19125;52.360;9.974;2023-09-07T06:30:43;86157.50;;;-145.17;57.81
32759;BME280;19125;52.360;9.974;2023-09-07T06:33:08;86018.59;;;-145.17;57.51
32759;BME280;19125;52.360;9.974;2023-09-07T06:35:34;85913.41;;;-145.17;57.11
32759;BME280;19125;52.360;9.974;2023-09-07T06:37:59;85853.91;;;-145.17;56.67
32759;BME280;19125;52.360;9.974;2023-09-07T06:40:24;85730.88;;;-145.17;55.92
32759;BME280;19125;52.360;9.974;2023-09-07T06:42:51;85703.09;;;-145.17;55.19
32759;BME280;19125;52.360;9.974;2023-09-07T06:45:16;85627.69;;;-145.17;54.83
32759;BME280;19125;52.360;9.974;2023-09-07T06:47:42;85599.94;;;-145.17;54.22
32759;BME280;19125;52.360;9.974;2023-09-07T06:50:07;85524.53;;;-145.17;53.87
32759;BME280;19125;52.360;9.974;2023-09-07T06:52:32;85476.91;;;-145.17;53.41
32759;BME280;19125;52.360;9.974;2023-09-07T06:55:00;85433.25;;;-145.17;52.97
32759;BME280;19125;52.360;9.974;2023-09-07T06:57:26;85371.75;;;-145.17;52.67
32759;BME280;19125;52.360;9.974;2023-09-07T06:59:52;85365.81;;;-145.17;52.61
32759;BME280;19125;52.360;9.974;2023-09-07T07:02:17;85385.66;;;-145.17;52.24
32759;BME280;19125;52.360;9.974;2023-09-07T07:04:43;85353.91;;;-145.17;52.15
32759;BME280;19125;52.360;9.974;2023-09-07T07:07:10;85290.41;;;-145.17;52.05
32759;BME280;19125;52.360;9.974;2023-09-07T07:09:36;85274.53;;;-145.17;51.90
32759;BME280;19125;52.360;9.974;2023-09-07T07:12:01;85252.72;;;-145.17;51.71
32759;BME280;19125;52.360;9.974;2023-09-07T07:14:27;85181.31;;;-145.17;51.27
32759;BME280;19125;52.360;9.974;2023-09-07T07:16:52;85149.56;;;-145.17;51.41
32759;BME280;19125;52.360;9.974;2023-09-07T07:19:18;85173.38;;;-145.17;51.09
32759;BME280;19125;52.360;9.974;2023-09-07T07:21:43;85135.66;;;-145.17;50.15
32759;BME280;19125;52.360;9.974;2023-09-07T07:24:09;85099.97;;;-145.17;50.02
32759;BME280;19125;52.360;9.974;2023-09-07T07:26:35;85088.06;;;-145.17;49.48
32759;BME280;19125;52.360;9.974;2023-09-07T07:29:01;85090.03;;;-145.17;49.37
32759;BME280;19125;52.360;9.974;2023-09-07T07:31:31;85048.38;;;-145.17;49.28
32759;BME280;19125;52.360;9.974;2023-09-07T07:33:56;84992.84;;;-145.17;48.94
32759;BME280;19125;52.360;9.974;2023-09-07T07:36:21;84988.88;;;-145.17;48.74
32759;BME280;19125;52.360;9.974;2023-09-07T07:38:47;84957.13;;;-145.17;48.31
32759;BME280;19125;52.360;9.974;2023-09-07T07:41:12;84937.28;;;-145.17;48.07
32759;BME280;19125;52.360;9.974;2023-09-07T07:43:38;84913.50;;;-145.17;47.57
32759;BME280;19125;52.360;9.974;2023-09-07T07:46:03;84883.72;;;-145.17;47.20
32759;BME280;19125;52.360;9.974;2023-09-07T07:48:28;84953.16;;;-145.17;47.26
32759;BME280;19125;52.360;9.974;2023-09-07T07:50:55;84923.41;;;-145.17;47.60
32759;BME280;19125;52.360;9.974;2023-09-07T07:53:20;84871.81;;;-145.17;47.14
32759;BME280;19125;52.360;9.974;2023-09-07T07:55:45;84836.13;;;-145.17;46.93
32759;BME280;19125;52.360;9.974;2023-09-07T07:58:11;84853.97;;;-145.17;46.64
32759;BME280;19125;52.360;9.974;2023-09-07T08:00:38;84790.50;;;-145.17;46.14
32759;BME280;19125;52.360;9.974;2023-09-07T08:03:04;84760.75;;;-145.17;46.09
32759;BME280;19125;52.360;9.974;2023-09-07T08:05:34;84746.84;;;-145.17;45.93
32759;BME280;19125;52.360;9.974;2023-09-07T08:08:02;84758.75;;;-145.17;45.68
32759;BME280;19125;52.360;9.974;2023-09-07T08:10:28;84699.25;;;-145.17;45.33
32759;BME280;19125;52.360;9.974;2023-09-07T08:12:54;84691.31;;;-145.17;45.35
32759;BME280;19125;52.360;9.974;2023-09-07T08:15:20;84663.53;;;-145.17;44.98
32759;BME280;19125;52.360;9.974;2023-09-07T08:17:48;84663.53;;;-145.17;44.81
32759;BME280;19125;52.360;9.974;2023-09-07T08:20:13;84631.81;;;-145.17;44.47
32759;BME280;19125;52.360;9.974;2023-09-07T08:22:39;84635.78;;;-145.17;44.30
32759;BME280;19125;52.360;9.974;2023-09-07T08:25:07;84608.00;;;-145.17;44.07
32759;BME280;19125;52.360;9.974;2023-09-07T08:27:33;84548.50;;;-145.17;43.84
32759;BME280;19125;52.360;9.974;2023-09-07T08:29:58;84568.31;;;-145.17;43.01
32759;BME280;19125;52.360;9.974;2023-09-07T08:32:24;84528.66;;;-145.17;43.25
32759;BME280;19125;52.360;9.974;2023-09-07T08:34:49;84556.44;;;-145.17;42.93
32759;BME280;19125;52.360;9.974;2023-09-07T08:37:16;84540.56;;;-145.17;42.91
32759;BME280;19125;52.360;9.974;2023-09-07T08:39:41;84490.97;;;-145.17;43.01
32759;BME280;19125;52.360;9.974;2023-09-07T08:42:07;84449.31;;;-145.17;42.70
32759;BME280;19125;52.360;9.974;2023-09-07T08:44:33;84453.28;;;-145.17;42.41
32759;BME280;19125;52.360;9.974;2023-09-07T08:46:59;84417.56;;;-145.17;41.82
32759;BME280;19125;52.360;9.974;2023-09-07T08:49:27;84391.78;;;-145.17;41.93
32759;BME280;19125;52.360;9.974;2023-09-07T08:51:53;84385.84;;;-145.17;41.71
32759;BME280;19125;52.360;9.974;2023-09-07T08:54:19;84397.75;;;-145.17;41.29
32759;BME280;19125;52.360;9.974;2023-09-07T08:56:46;84358.06;;;-145.17;41.12
32759;BME280;19125;52.360;9.974;2023-09-07T08:59:12;84344.19;;;-145.17;40.75
32759;BME280;19125;52.360;9.974;2023-09-07T09:01:39;84306.50;;;-145.17;40.79
32759;BME280;19125;52.360;9.974;2023-09-07T09:04:04;84302.53;;;-145.17;40.68
32759;BME280;19125;52.360;9.974;2023-09-07T09:06:30;84324.34;;;-145.17;40.15
32759;BME280;19125;52.360;9.974;2023-09-07T09:08:57;84352.13;;;-145.17;40.40
32759;BME280;19125;52.360;9.974;2023-09-07T09:11:23;84254.94;;;-145.17;40.15
32759;BME280;19125;52.360;9.974;2023-09-07T09:13:51;84284.69;;;-145.17;39.75
32759;BME280;19125;52.360;9.974;2023-09-07T09:16:17;84284.69;;;-145.17;39.61
32759;BME280;19125;52.360;9.974;2023-09-07T09:18:58;84221.22;;;-145.17;39.62
32759;BME280;19125;52.360;9.974;2023-09-07T09:21:26;84231.13;;;-145.17;39.34
32759;BME280;19125;52.360;9.974;2023-09-07T09:23:54;84177.59;;;-145.17;39.13
32759;BME280;19125;52.360;9.974;2023-09-07T09:26:20;84171.63;;;-145.17;38.65
32759;BME280;19125;52.360;9.974;2023-09-07T09:28:46;84177.59;;;-145.17;38.53
32759;BME280;19125;52.360;9.974;2023-09-07T09:31:12;84135.94;;;-145.17;38.61
32759;BME280;19125;52.360;9.974;2023-09-07T09:33:41;84139.91;;;-145.17;38.50
32759;BME280;19125;52.360;9.974;2023-09-07T09:36:08;84094.28;;;-145.17;38.13
32759;BME280;19125;52.360;9.974;2023-09-07T09:38:34;84050.66;;;-145.17;38.08
32759;BME280;19125;52.360;9.974;2023-09-07T09:41:00;84048.66;;;-145.17;37.81
32759;BME280;19125;52.360;9.974;2023-09-07T09:43:26;84068.50;;;-145.17;37.43
32759;BME280;19125;52.360;9.974;2023-09-07T09:45:52;84040.72;;;-145.17;37.55
32759;BME280;19125;52.360;9.974;2023-09-07T09:48:22;84012.97;;;-145.17;37.63
32759;BME280;19125;52.360;9.974;2023-09-07T09:50:48;83965.38;;;-145.17;37.07
32759;BME280;19125;52.360;9.974;2023-09-07T09:53:15;83977.25;;;-145.17;37.06
32759;BME280;19125;52.360;9.974;2023-09-07T09:55:44;83973.28;;;-145.17;37.21
32759;BME280;19125;52.360;9.974;2023-09-07T09:58:11;83941.56;;;-145.17;36.74
32759;BME280;19125;52.360;9.974;2023-09-07T10:00:37;83939.59;;;-145.17;36.89
32759;BME280;19125;52.360;9.974;2023-09-07T10:03:12;83856.28;;;-145.17;36.82
32759;BME280;19125;52.360;9.974;2023-09-07T10:05:39;83917.75;;;-145.17;36.41
32759;BME280;19125;52.360;9.974;2023-09-07T10:08:15;83897.94;;;-145.17;36.16
32759;BME280;19125;52.360;9.974;2023-09-07T10:10:42;83826.53;;;-145.17;35.82
32759;BME280;19125;52.360;9.974;2023-09-07T10:13:08;83834.47;;;-145.17;35.68
32759;BME280;19125;52.360;9.974;2023-09-07T10:15:34;83862.22;;;-145.17;35.43
32759;BME280;19125;52.360;9.974;2023-09-07T10:18:15;83864.22;;;-145.17;35.24
32759;BME280;19125;52.360;9.974;2023-09-07T10:20:55;83838.44;;;-145.17;35.40
32759;BME280;19125;52.360;9.974;2023-09-07T10:26:03;83812.66;;;-145.17;35.56
32759;BME280;19125;52.360;9.974;2023-09-07T10:28:31;83784.88;;;-145.17;35.54
32759;BME280;19125;52.360;9.974;2023-09-07T10:31:16;83731.34;;;-145.17;35.41
32759;BME280;19125;52.360;9.974;2023-09-07T10:33:42;83765.06;;;-145.17;34.90
32759;BME280;19125;52.360;9.974;2023-09-07T10:36:07;83757.13;;;-145.17;34.79
32759;BME280;19125;52.360;9.974;2023-09-07T10:38:34;83731.34;;;-145.17;34.55
32759;BME280;19125;52.360;9.974;2023-09-07T10:41:01;83711.50;;;-145.17;34.92
32759;BME280;19125;52.360;9.974;2023-09-07T10:43:29;83757.13;;;-145.17;34.35
32759;BME280;19125;52.360;9.974;2023-09-07T10:45:55;83741.25;;;-145.17;33.88
32759;BME280;19125;52.360;9.974;2023-09-07T10:48:22;83709.53;;;-145.17;34.38
32759;BME280;19125;52.360;9.974;2023-09-07T10:50:48;83695.66;;;-145.17;34.10
32759;BME280;19125;52.360;9.974;2023-09-07T10:53:14;83715.47;;;-145.17;33.73
32759;BME280;19125;52.360;9.974;2023-09-07T10:55:40;83695.66;;;-145.17;33.89
32759;BME280;19125;52.360;9.974;2023-09-07T10:58:08;83669.88;;;-145.17;33.49
32759;BME280;19125;52.360;9.974;2023-09-07T11:00:34;83636.16;;;-145.17;32.75
32759;BME280;19125;52.360;9.974;2023-09-07T11:03:09;83663.91;;;-145.17;32.99
32759;BME280;19125;52.360;9.974;2023-09-07T11:05:37;83648.06;;;-145.17;33.27
32759;BME280;19125;52.360;9.974;2023-09-07T11:08:04;83612.34;;;-145.17;33.60
32759;BME280;19125;52.360;9.974;2023-09-07T11:10:33;83538.97;;;-145.17;33.48
32759;BME280;19125;52.360;9.974;2023-09-07T11:13:01;83564.75;;;-145.17;33.62
32759;BME280;19125;52.360;9.974;2023-09-07T11:15:29;83568.72;;;-145.17;33.29
32759;BME280;19125;52.360;9.974;2023-09-07T11:17:54;83568.72;;;-145.17;33.23
32759;BME280;19125;52.360;9.974;2023-09-07T11:20:21;83590.53;;;-145.17;32.64
32759;BME280;19125;52.360;9.974;2023-09-07T11:22:46;83511.22;;;-145.17;32.81
32759;BME280;19125;52.360;9.974;2023-09-07T11:25:12;83485.44;;;-145.17;32.23
32759;BME280;19125;52.360;9.974;2023-09-07T11:27:39;83469.56;;;-145.17;32.81
32759;BME280;19125;52.360;9.974;2023-09-07T11:30:05;83503.28;;;-145.17;32.69
32759;BME280;19125;52.360;9.974;2023-09-07T11:32:36;83501.31;;;-145.17;32.57
32759;BME280;19125;52.360;9.974;2023-09-07T11:35:02;83469.56;;;-145.17;32.26
32759;BME280;19125;52.360;9.974;2023-09-07T11:37:27;83421.97;;;-145.17;32.24
32759;BME280;19125;52.360;9.974;2023-09-07T11:39:53;83479.50;;;-145.17;31.64
32759;BME280;19125;52.360;9.974;2023-09-07T11:42:18;83453.72;;;-145.17;32.12
32759;BME280;19125;52.360;9.974;2023-09-07T11:44:44;83410.09;;;-145.17;32.56
32759;BME280;19125;52.360;9.974;2023-09-07T11:47:09;83364.47;;;-145.17;32.15
32759;BME280;19125;52.360;9.974;2023-09-07T11:49:34;83394.22;;;-145.17;31.65
32759;BME280;19125;52.360;9.974;2023-09-07T11:52:00;83475.53;;;-145.17;31.50
32759;BME280;19125;52.360;9.974;2023-09-07T11:54:25;83412.06;;;-145.17;31.58
32759;BME280;19125;52.360;9.974;2023-09-07T11:56:51;83388.28;;;-145.17;31.87
32759;BME280;19125;52.360;9.974;2023-09-07T11:59:16;83304.97;;;-145.17;31.66
32759;BME280;19125;52.360;9.974;2023-09-07T12:01:44;83291.09;;;-145.17;31.50
32759;BME280;19125;52.360;9.974;2023-09-07T12:04:10;83310.94;;;-145.17;30.91
32759;BME280;19125;52.360;9.974;2023-09-07T12:06:36;83348.59;;;-145.17;31.01
32759;BME280;19125;52.360;9.974;2023-09-07T12:09:06;83283.16;;;-145.17;30.85
32759;BME280;19125;52.360;9.974;2023-09-07T12:11:35;83318.88;;;-145.17;31.00
32759;BME280;19125;52.360;9.974;2023-09-07T12:14:00;83247.47;;;-145.17;30.41
32759;BME280;19125;52.360;9.974;2023-09-07T12:16:26;83269.28;;;-145.17;30.55
32759;BME280;19125;52.360;9.974;2023-09-07T12:18:52;83259.38;;;-145.17;30.49
32759;BME280;19125;52.360;9.974;2023-09-07T12:21:18;83215.75;;;-145.17;30.63
32759;BME280;19125;52.360;9.974;2023-09-07T12:23:43;83241.53;;;-145.17;30.27
32759;BME280;19125;52.360;9.974;2023-09-07T12:26:08;83237.56;;;-145.17;30.53
32759;BME280;19125;52.360;9.974;2023-09-07T12:28:34;83227.66;;;-145.17;30.49
32759;BME280;19125;52.360;9.974;2023-09-07T12:30:59;83269.28;;;-145.17;30.75
32759;BME280;19125;52.360;9.974;2023-09-07T12:33:24;83215.75;;;-145.17;30.82
32759;BME280;19125;52.360;9.974;2023-09-07T12:35:50;83235.59;;;-145.17;30.27
32759;BME280;19125;52.360;9.974;2023-09-07T12:38:16;83243.50;;;-145.17;30.33